createdAt,value
2022-12-10T00:01:40.786Z,0.40
2022-12-10T00:04:07.648Z,0.40
2022-12-10T00:06:37.091Z,0.30
2022-12-10T00:09:06.180Z,0.40
2022-12-10T00:11:34.043Z,0.30
2022-12-10T00:14:01.410Z,0.30
2022-12-10T00:16:31.565Z,0.30
2022-12-10T00:18:58.540Z,0.30
2022-12-10T00:21:28.009Z,0.40
2022-12-10T00:23:55.667Z,0.30
2022-12-10T00:26:25.325Z,0.40
2022-12-10T00:28:53.184Z,0.40
2022-12-10T00:31:22.047Z,0.40
2022-12-10T00:33:50.585Z,0.50
2022-12-10T00:36:19.491Z,0.40
2022-12-10T00:38:47.444Z,0.40
2022-12-10T00:41:15.469Z,0.40
2022-12-10T00:43:42.838Z,0.50
2022-12-10T00:46:10.717Z,0.50
2022-12-10T00:48:37.903Z,0.50
2022-12-10T00:51:08.493Z,0.50
2022-12-10T00:53:37.100Z,0.50
2022-12-10T00:56:05.802Z,0.50
2022-12-10T00:58:34.894Z,0.60
2022-12-10T01:01:10.354Z,0.60
2022-12-10T01:03:37.795Z,0.70
2022-12-10T01:06:15.446Z,0.80
2022-12-10T01:08:43.014Z,0.70
2022-12-10T01:11:11.225Z,0.60
2022-12-10T01:13:38.541Z,0.50
2022-12-10T01:16:08.233Z,0.50
2022-12-10T01:18:35.868Z,0.50
2022-12-10T01:21:03.839Z,0.50
2022-12-10T01:23:34.783Z,0.60
2022-12-10T01:26:03.295Z,0.60
2022-12-10T01:28:31.918Z,0.60
2022-12-10T01:31:02.789Z,0.70
2022-12-10T01:33:31.020Z,0.60
2022-12-10T01:35:58.301Z,0.60
2022-12-10T01:38:25.566Z,0.60
2022-12-10T01:40:53.781Z,0.60
2022-12-10T01:43:21.060Z,0.60
2022-12-10T01:45:48.219Z,0.50
2022-12-10T01:48:17.110Z,0.50
2022-12-10T01:50:44.182Z,0.50
2022-12-10T01:53:12.680Z,0.50
2022-12-10T01:55:50.773Z,0.50
2022-12-10T01:58:20.858Z,0.40
2022-12-10T02:00:59.334Z,0.50
2022-12-10T02:03:35.502Z,0.50
2022-12-10T02:06:11.398Z,0.50
2022-12-10T02:08:47.652Z,0.50
2022-12-10T02:11:18.224Z,0.50
2022-12-10T02:13:54.046Z,0.50
2022-12-10T02:16:27.607Z,0.50
2022-12-10T02:18:59.431Z,0.50
2022-12-10T02:21:33.420Z,0.50
2022-12-10T02:24:04.449Z,0.50
2022-12-10T02:26:39.003Z,0.50
2022-12-10T02:29:15.083Z,0.50
2022-12-10T02:31:47.256Z,0.50
2022-12-10T02:34:16.378Z,0.50
2022-12-10T02:36:46.930Z,0.50
2022-12-10T02:39:19.009Z,0.50
2022-12-10T02:41:49.282Z,0.60
2022-12-10T02:44:19.822Z,0.60
2022-12-10T02:46:49.932Z,0.50
2022-12-10T02:49:18.645Z,0.60
2022-12-10T02:51:45.524Z,0.50
2022-12-10T02:54:41.343Z,0.50
2022-12-10T02:57:31.760Z,0.60
2022-12-10T03:00:13.763Z,0.60
2022-12-10T03:02:52.458Z,0.60
2022-12-10T03:05:24.676Z,0.60
2022-12-10T03:07:57.954Z,0.60
2022-12-10T03:10:31.341Z,0.60
2022-12-10T03:13:01.208Z,0.60
2022-12-10T03:15:34.003Z,0.60
2022-12-10T03:18:05.047Z,0.60
2022-12-10T03:20:33.855Z,0.60
2022-12-10T03:23:02.605Z,0.60
2022-12-10T03:25:32.150Z,0.60
2022-12-10T03:28:01.657Z,0.60
2022-12-10T03:30:33.211Z,0.60
2022-12-10T03:33:01.277Z,0.60
2022-12-10T03:35:28.614Z,0.60
2022-12-10T03:37:56.514Z,0.60
2022-12-10T03:40:25.495Z,0.60
2022-12-10T03:42:52.860Z,0.60
2022-12-10T03:45:20.138Z,0.60
2022-12-10T03:47:50.218Z,0.60
2022-12-10T03:50:17.981Z,0.50
2022-12-10T03:52:45.029Z,0.50
2022-12-10T03:55:12.176Z,0.50
2022-12-10T03:57:39.104Z,0.50
2022-12-10T04:00:08.539Z,0.50
2022-12-10T04:02:35.664Z,0.60
2022-12-10T04:05:06.360Z,0.60
2022-12-10T04:07:33.365Z,0.60
2022-12-10T04:10:00.648Z,0.60
2022-12-10T04:12:27.645Z,0.60
2022-12-10T04:15:13.582Z,0.60
2022-12-10T04:17:40.499Z,0.60
2022-12-10T04:20:32.445Z,0.60
2022-12-10T04:23:17.806Z,0.60
2022-12-10T04:26:03.473Z,0.50
2022-12-10T04:28:30.497Z,0.50
2022-12-10T04:30:57.727Z,0.60
2022-12-10T04:33:24.609Z,0.60
2022-12-10T04:35:53.206Z,0.60
2022-12-10T04:38:20.242Z,0.60
2022-12-10T04:40:47.536Z,0.60
2022-12-10T04:43:14.527Z,0.60
2022-12-10T04:45:41.717Z,0.50
2022-12-10T04:48:08.928Z,0.50
2022-12-10T04:50:36.253Z,0.60
2022-12-10T04:53:04.471Z,0.50
2022-12-10T04:55:31.670Z,0.50
2022-12-10T04:57:58.562Z,0.50
2022-12-10T05:00:26.298Z,0.50
2022-12-10T05:02:53.197Z,0.50
2022-12-10T05:05:20.432Z,0.50
2022-12-10T05:07:47.357Z,0.50
2022-12-10T05:10:16.130Z,0.50
2022-12-10T05:12:42.922Z,0.60
2022-12-10T05:15:11.172Z,0.60
2022-12-10T05:17:38.028Z,0.60
2022-12-10T05:20:06.610Z,0.50
2022-12-10T05:22:52.307Z,0.50
2022-12-10T05:25:20.970Z,0.50
2022-12-10T05:27:47.893Z,0.50
2022-12-10T05:30:15.127Z,0.50
2022-12-10T05:32:42.021Z,0.50
2022-12-10T05:35:09.338Z,0.50
2022-12-10T05:37:36.220Z,0.50
2022-12-10T05:40:04.204Z,0.40
2022-12-10T05:42:32.429Z,0.40
2022-12-10T05:45:00.008Z,0.40
2022-12-10T05:47:26.855Z,0.40
2022-12-10T05:49:53.777Z,0.50
2022-12-10T05:52:20.665Z,0.50
2022-12-10T05:54:47.844Z,0.50
2022-12-10T05:57:14.740Z,0.50
2022-12-10T05:59:43.289Z,0.40
2022-12-10T06:02:10.143Z,0.40
2022-12-10T06:04:37.339Z,0.40
2022-12-10T06:07:09.448Z,0.40
2022-12-10T06:09:38.410Z,0.50
2022-12-10T06:12:05.929Z,0.40
2022-12-10T06:14:33.280Z,0.30
2022-12-10T06:17:01.492Z,0.30
2022-12-10T06:19:28.969Z,0.30
2022-12-10T06:21:55.800Z,0.30
2022-12-10T06:24:22.951Z,0.30
2022-12-10T06:26:53.920Z,0.30
2022-12-10T06:29:23.088Z,0.30
2022-12-10T06:31:49.959Z,0.30
2022-12-10T06:34:18.550Z,0.30
2022-12-10T06:36:45.390Z,0.30
2022-12-10T06:39:12.675Z,0.30
2022-12-10T06:41:39.573Z,0.30
2022-12-10T06:44:08.833Z,0.30
2022-12-10T06:46:35.712Z,0.30
2022-12-10T06:49:02.942Z,0.30
2022-12-10T06:51:31.309Z,0.30
2022-12-10T06:53:58.655Z,0.30
2022-12-10T06:56:25.628Z,0.30
2022-12-10T06:58:52.847Z,0.30
2022-12-10T07:01:21.954Z,0.20
2022-12-10T07:03:49.986Z,0.30
2022-12-10T07:06:16.849Z,0.20
2022-12-10T07:08:45.097Z,0.20
2022-12-10T07:11:14.001Z,0.20
2022-12-10T07:13:41.866Z,0.20
2022-12-10T07:16:14.629Z,0.20
2022-12-10T07:18:45.091Z,0.20
2022-12-10T07:21:15.864Z,0.20
2022-12-10T07:23:43.289Z,0.20
2022-12-10T07:26:11.768Z,0.20
2022-12-10T07:28:49.536Z,0.20
2022-12-10T07:31:19.652Z,0.20
2022-12-10T07:33:46.859Z,0.10
2022-12-10T07:36:15.269Z,0.10
2022-12-10T07:38:42.544Z,0.10
2022-12-10T07:41:12.957Z,0.10
2022-12-10T07:43:42.180Z,0.10
2022-12-10T07:46:11.735Z,0.10
2022-12-10T07:48:40.744Z,0.10
2022-12-10T07:51:08.194Z,0.00
2022-12-10T07:53:35.586Z,0.00
2022-12-10T07:56:03.616Z,0.10
2022-12-10T07:58:32.415Z,0.10
2022-12-10T08:00:59.500Z,0.20
2022-12-10T08:03:26.636Z,0.10
2022-12-10T08:06:03.807Z,0.10
2022-12-10T08:08:30.780Z,0.10
2022-12-10T08:11:00.571Z,0.10
2022-12-10T08:13:28.525Z,0.20
2022-12-10T08:16:02.142Z,0.20
2022-12-10T08:18:29.326Z,0.20
2022-12-10T08:20:56.131Z,0.20
2022-12-10T08:23:23.024Z,0.20
2022-12-10T08:25:50.225Z,0.20
2022-12-10T08:28:17.260Z,0.20
2022-12-10T08:30:47.374Z,0.30
2022-12-10T08:33:15.950Z,0.30
2022-12-10T08:35:42.966Z,0.30
2022-12-10T08:38:09.866Z,0.30
2022-12-10T08:40:40.828Z,0.30
2022-12-10T08:43:07.943Z,0.30
2022-12-10T08:45:35.863Z,0.20
2022-12-10T08:48:03.590Z,0.20
2022-12-10T08:50:32.183Z,0.30
2022-12-10T08:52:59.042Z,0.30
2022-12-10T08:55:26.405Z,0.30
2022-12-10T08:57:53.238Z,0.30
2022-12-10T09:00:20.439Z,0.20
2022-12-10T09:02:47.494Z,0.20
2022-12-10T09:05:14.904Z,0.20
2022-12-10T09:07:43.205Z,0.20
2022-12-10T09:10:12.986Z,0.20
2022-12-10T09:12:40.218Z,0.20
2022-12-10T09:15:10.863Z,0.20
2022-12-10T09:17:39.364Z,0.30
2022-12-10T09:20:07.856Z,0.30
2022-12-10T09:22:37.684Z,0.30
2022-12-10T09:25:07.427Z,0.40
2022-12-10T09:27:34.484Z,0.30
2022-12-10T09:30:01.523Z,0.20
2022-12-10T09:32:28.431Z,0.30
2022-12-10T09:34:55.864Z,0.40
2022-12-10T09:37:22.810Z,0.40
2022-12-10T09:39:50.038Z,0.50
2022-12-10T09:42:34.412Z,0.40
2022-12-10T09:45:09.778Z,0.40
2022-12-10T09:47:41.092Z,0.40
2022-12-10T09:50:20.367Z,0.40
2022-12-10T09:52:50.090Z,0.40
2022-12-10T09:55:22.079Z,0.30
2022-12-10T09:57:52.672Z,0.30
2022-12-10T10:00:24.423Z,0.30
2022-12-10T10:02:52.458Z,0.40
2022-12-10T10:05:23.746Z,0.40
2022-12-10T10:07:54.586Z,0.40
2022-12-10T10:10:26.255Z,0.50
2022-12-10T10:12:59.457Z,0.60
2022-12-10T10:15:32.337Z,0.60
2022-12-10T10:18:04.099Z,0.70
2022-12-10T10:20:31.592Z,0.60
2022-12-10T10:23:00.971Z,0.60
2022-12-10T10:25:29.295Z,0.70
2022-12-10T10:27:57.478Z,0.60
2022-12-10T10:30:26.147Z,0.60
2022-12-10T10:32:54.619Z,0.60
2022-12-10T10:35:32.053Z,0.60
2022-12-10T10:38:05.804Z,0.60
2022-12-10T10:40:40.587Z,0.50
2022-12-10T10:43:16.218Z,0.40
2022-12-10T10:45:48.624Z,0.40
2022-12-10T10:48:18.093Z,0.40
2022-12-10T10:50:48.329Z,0.40
2022-12-10T10:53:33.124Z,0.50
2022-12-10T10:56:07.595Z,0.50
2022-12-10T10:58:37.217Z,0.50
2022-12-10T11:01:06.863Z,0.50
2022-12-10T11:03:37.094Z,0.50
2022-12-10T11:06:08.122Z,0.60
2022-12-10T11:08:38.177Z,0.40
2022-12-10T11:11:07.801Z,0.40
2022-12-10T11:13:38.151Z,0.40
2022-12-10T11:16:13.946Z,0.40
2022-12-10T11:18:42.722Z,0.50
2022-12-10T11:21:20.024Z,0.40
2022-12-10T11:23:50.515Z,0.40
2022-12-10T11:26:51.639Z,0.30
2022-12-10T11:29:36.126Z,0.30
2022-12-10T11:32:16.251Z,0.30
2022-12-10T11:34:59.274Z,0.20
2022-12-10T11:37:35.484Z,0.20
2022-12-10T11:40:29.567Z,0.30
2022-12-10T11:43:15.587Z,0.30
2022-12-10T11:45:56.668Z,0.30
2022-12-10T11:48:43.378Z,0.30
2022-12-10T11:51:23.010Z,0.40
2022-12-10T11:54:07.498Z,0.30
2022-12-10T11:56:39.245Z,0.30
2022-12-10T11:59:15.662Z,0.20
2022-12-10T12:02:05.013Z,0.20
2022-12-10T12:04:53.660Z,0.30
2022-12-10T12:07:35.337Z,0.30
2022-12-10T12:10:53.509Z,0.20
2022-12-10T12:13:25.291Z,0.20
2022-12-10T12:15:58.614Z,0.20
2022-12-10T12:18:34.102Z,0.20
2022-12-10T12:21:07.943Z,0.30
2022-12-10T12:23:46.748Z,0.30
2022-12-10T12:26:18.994Z,0.20
2022-12-10T12:28:52.394Z,0.20
2022-12-10T12:31:37.084Z,0.20
2022-12-10T12:34:17.258Z,0.20
2022-12-10T12:36:46.339Z,0.30
2022-12-10T12:39:21.127Z,0.20
2022-12-10T12:41:58.661Z,0.30
2022-12-10T12:44:34.667Z,0.30
2022-12-10T12:47:15.727Z,0.40
2022-12-10T12:49:49.721Z,0.30
2022-12-10T12:52:29.609Z,0.30
2022-12-10T12:55:02.632Z,0.30
2022-12-10T12:57:38.153Z,0.30
2022-12-10T13:00:11.811Z,0.40
2022-12-10T13:03:01.525Z,0.30
2022-12-10T13:05:33.953Z,0.10
2022-12-10T13:08:26.617Z,0.10
2022-12-10T13:10:57.769Z,0.00
2022-12-10T13:13:33.691Z,0.00
2022-12-10T13:16:48.659Z,0.10
2022-12-10T13:19:31.320Z,0.00
2022-12-10T13:22:05.327Z,0.00
2022-12-10T13:25:14.068Z,0.00
2022-12-10T13:27:43.181Z,0.00
2022-12-10T13:30:43.240Z,0.10
2022-12-10T13:33:20.452Z,0.10
2022-12-10T13:36:02.716Z,0.10
2022-12-10T13:38:41.624Z,0.10
2022-12-10T13:41:45.184Z,0.10
2022-12-10T13:44:41.272Z,0.20
2022-12-10T13:47:31.538Z,0.20
2022-12-10T13:50:01.944Z,0.20
2022-12-10T13:52:39.923Z,0.20
2022-12-10T13:55:27.887Z,0.20
2022-12-10T13:58:08.923Z,0.20
2022-12-10T14:00:43.657Z,0.20
2022-12-10T14:03:52.172Z,0.10
2022-12-10T14:06:25.240Z,0.20
2022-12-10T14:09:00.936Z,0.20
2022-12-10T14:11:37.354Z,0.20
2022-12-10T14:14:11.012Z,0.10
2022-12-10T14:16:41.871Z,0.10
2022-12-10T14:19:14.656Z,0.10
2022-12-10T14:21:45.219Z,0.10
2022-12-10T14:24:29.267Z,0.10
2022-12-10T14:27:02.408Z,0.10
2022-12-10T14:29:30.692Z,0.10
2022-12-10T14:31:58.569Z,0.10
2022-12-10T14:34:29.405Z,0.20
2022-12-10T14:37:00.785Z,0.20
2022-12-10T14:39:31.762Z,0.20
2022-12-10T14:42:03.552Z,0.10
2022-12-10T14:44:32.939Z,0.20
2022-12-10T14:47:14.316Z,0.10
2022-12-10T14:49:43.860Z,0.20
2022-12-10T14:52:14.846Z,0.10
2022-12-10T14:54:44.141Z,0.10
2022-12-10T14:57:20.421Z,0.10
2022-12-10T14:59:57.165Z,0.10
2022-12-10T15:02:32.378Z,0.10
2022-12-10T15:05:01.860Z,0.10
2022-12-10T15:07:38.537Z,0.00
2022-12-10T15:10:19.205Z,0.10
2022-12-10T15:13:06.874Z,-0.10
2022-12-10T15:15:44.365Z,-0.10
2022-12-10T15:18:18.159Z,0.10
2022-12-10T15:20:48.933Z,-0.10
2022-12-10T15:23:35.508Z,-0.10
2022-12-10T15:26:19.076Z,-0.10
2022-12-10T15:29:37.137Z,0.00
2022-12-10T15:32:16.428Z,0.00
2022-12-10T15:34:47.226Z,0.00
2022-12-10T15:37:21.359Z,0.00
2022-12-10T15:39:53.757Z,0.00
2022-12-10T15:42:39.773Z,0.00
2022-12-10T15:45:20.412Z,0.00
2022-12-10T15:47:47.878Z,0.00
2022-12-10T15:50:15.493Z,0.00
2022-12-10T15:52:45.741Z,0.00
2022-12-10T15:55:14.823Z,0.00
2022-12-10T15:57:50.349Z,0.00
2022-12-10T16:00:46.196Z,-0.10
2022-12-10T16:09:04.166Z,-0.10
2022-12-10T16:11:33.595Z,-0.10
2022-12-10T16:14:08.734Z,-0.10
2022-12-10T16:19:49.593Z,-0.20
2022-12-10T16:22:27.233Z,-0.20
2022-12-10T16:25:34.143Z,-0.20
2022-12-10T16:28:02.022Z,-0.20
2022-12-10T16:30:38.867Z,-0.10
2022-12-10T16:33:09.712Z,0.00
2022-12-10T16:35:36.893Z,0.00
2022-12-10T16:38:10.227Z,0.10
2022-12-10T16:40:39.874Z,0.10
2022-12-10T16:43:07.016Z,0.00
2022-12-10T16:45:37.661Z,0.00
2022-12-10T16:48:05.510Z,0.00
2022-12-10T16:50:35.390Z,0.00
2022-12-10T16:53:07.751Z,0.00
2022-12-10T16:55:35.069Z,-0.10
2022-12-10T16:58:02.182Z,-0.10
2022-12-10T17:00:29.677Z,0.00
2022-12-10T17:03:07.584Z,-0.10
2022-12-10T17:05:43.111Z,-0.10
2022-12-10T17:08:10.270Z,-0.20
2022-12-10T17:10:56.260Z,-0.20
2022-12-10T17:13:24.613Z,-0.20
2022-12-10T17:15:51.767Z,-0.20
2022-12-10T17:18:19.061Z,-0.20
2022-12-10T17:20:47.888Z,-0.20
2022-12-10T17:23:14.906Z,-0.20
2022-12-10T17:25:42.961Z,-0.20
2022-12-10T17:28:14.110Z,-0.10
2022-12-10T17:30:41.047Z,-0.20
2022-12-10T17:33:09.474Z,-0.20
2022-12-10T17:35:36.967Z,-0.20
2022-12-10T17:38:05.157Z,-0.20
2022-12-10T17:40:32.614Z,-0.10
2022-12-10T17:42:59.457Z,-0.20
2022-12-10T17:45:26.461Z,-0.20
2022-12-10T17:47:53.502Z,-0.20
2022-12-10T17:50:32.089Z,-0.20
2022-12-10T17:52:59.512Z,0.00
2022-12-10T17:55:28.726Z,-0.20
2022-12-10T17:57:58.026Z,-0.30
2022-12-10T18:00:27.926Z,-0.20
2022-12-10T18:02:55.422Z,-0.20
2022-12-10T18:05:22.427Z,-0.20
2022-12-10T18:07:50.091Z,-0.20
2022-12-10T18:10:20.866Z,-0.20
2022-12-10T18:12:50.815Z,-0.20
2022-12-10T18:15:18.640Z,-0.20
2022-12-10T18:17:46.304Z,-0.10
2022-12-10T18:20:22.097Z,-0.20
2022-12-10T18:22:49.206Z,-0.20
2022-12-10T18:25:21.989Z,-0.30
2022-12-10T18:27:51.620Z,-0.40
2022-12-10T18:30:21.712Z,-0.40
2022-12-10T18:32:49.450Z,-0.40
2022-12-10T18:35:17.202Z,-0.50
2022-12-10T18:37:46.015Z,-0.40
2022-12-10T18:40:16.959Z,-0.40
2022-12-10T18:42:47.362Z,-0.40
2022-12-10T18:45:16.114Z,-0.30
2022-12-10T18:47:42.959Z,-0.10
2022-12-10T18:50:20.386Z,-0.30
2022-12-10T18:52:47.250Z,-0.30
2022-12-10T18:55:14.502Z,-0.30
2022-12-10T18:57:45.771Z,-0.40
2022-12-10T19:00:17.859Z,-0.30
2022-12-10T19:02:44.995Z,-0.30
2022-12-10T19:05:12.917Z,-0.30
2022-12-10T19:07:40.172Z,-0.30
2022-12-10T19:10:14.684Z,-0.30
2022-12-10T19:12:41.632Z,-0.30
2022-12-10T19:15:09.853Z,-0.30
2022-12-10T19:17:38.502Z,-0.30
2022-12-10T19:20:07.485Z,-0.40
2022-12-10T19:22:34.334Z,-0.40
2022-12-10T19:25:01.330Z,-0.50
2022-12-10T19:27:28.446Z,-0.50
2022-12-10T19:29:55.384Z,-0.50
2022-12-10T19:32:22.269Z,-0.50
2022-12-10T19:34:50.588Z,-0.50
2022-12-10T19:37:17.459Z,-0.50
2022-12-10T19:39:44.722Z,-0.50
2022-12-10T19:42:11.852Z,-0.40
2022-12-10T19:44:38.757Z,-0.40
2022-12-10T19:47:11.395Z,-0.50
2022-12-10T19:49:38.625Z,-0.50
2022-12-10T19:52:06.929Z,-0.50
2022-12-10T19:54:34.262Z,-0.50
2022-12-10T19:57:01.378Z,-0.60
2022-12-10T19:59:28.621Z,-0.50
2022-12-10T20:01:55.537Z,-0.50
2022-12-10T20:04:22.579Z,-0.50
2022-12-10T20:06:49.923Z,-0.50
2022-12-10T20:09:21.510Z,-0.60
2022-12-10T20:11:48.765Z,-0.60
2022-12-10T20:14:16.052Z,-0.60
2022-12-10T20:16:43.411Z,-0.50
2022-12-10T20:19:11.888Z,-0.40
2022-12-10T20:21:38.840Z,-0.30
2022-12-10T20:24:07.443Z,-0.30
2022-12-10T20:26:37.256Z,-0.30
2022-12-10T20:29:07.059Z,-0.20
2022-12-10T20:31:34.051Z,-0.20
2022-12-10T20:34:01.386Z,-0.30
2022-12-10T20:36:28.577Z,-0.30
2022-12-10T20:38:55.560Z,-0.30
2022-12-10T20:41:22.627Z,-0.30
2022-12-10T20:43:51.873Z,-0.30
2022-12-10T20:46:22.398Z,-0.30
2022-12-10T20:48:50.305Z,-0.30
2022-12-10T20:51:19.285Z,-0.40
2022-12-10T20:53:46.458Z,-0.40
2022-12-10T20:56:14.721Z,-0.40
2022-12-10T20:58:41.783Z,-0.50
2022-12-10T21:01:10.167Z,-0.50
2022-12-10T21:03:38.065Z,-0.50
2022-12-10T21:06:05.754Z,-0.50
2022-12-10T21:08:32.897Z,-0.40
2022-12-10T21:11:00.282Z,-0.40
2022-12-10T21:13:29.275Z,-0.70
2022-12-10T21:15:58.875Z,-0.40
2022-12-10T21:18:28.035Z,-0.40
2022-12-10T21:20:56.524Z,-0.30
2022-12-10T21:23:25.519Z,-0.30
2022-12-10T21:25:53.662Z,-0.30
2022-12-10T21:28:21.204Z,-0.20
2022-12-10T21:30:49.118Z,-0.20
2022-12-10T21:33:17.114Z,-0.20
2022-12-10T21:35:45.900Z,-0.10
2022-12-10T21:38:12.805Z,-0.20
2022-12-10T21:40:41.396Z,-0.20
2022-12-10T21:43:18.823Z,-0.30
2022-12-10T21:45:50.480Z,-0.30
2022-12-10T21:48:19.997Z,-0.30
2022-12-10T21:50:48.601Z,-0.30
2022-12-10T21:53:15.954Z,-0.40
2022-12-10T21:55:46.285Z,-0.40
2022-12-10T21:58:13.292Z,-0.30
2022-12-10T22:00:40.340Z,-0.30
2022-12-10T22:03:07.337Z,-0.30
2022-12-10T22:05:40.595Z,-0.30
2022-12-10T22:08:10.340Z,-0.30
2022-12-10T22:10:37.968Z,-0.20
2022-12-10T22:13:04.907Z,-0.20
2022-12-10T22:15:32.084Z,-0.30
2022-12-10T22:17:59.142Z,-0.30
2022-12-10T22:20:26.357Z,-0.30
2022-12-10T22:22:53.211Z,-0.20
2022-12-10T22:25:21.804Z,-0.30
2022-12-10T22:27:49.009Z,-0.30
2022-12-10T22:30:16.126Z,-0.30
2022-12-10T22:32:45.005Z,-0.30
2022-12-10T22:35:13.150Z,-0.30
2022-12-10T22:37:40.651Z,-0.50
2022-12-10T22:40:09.175Z,-0.60
2022-12-10T22:42:40.859Z,-0.60
2022-12-10T22:45:09.910Z,-0.60
2022-12-10T22:47:37.052Z,-0.60
2022-12-10T22:50:05.399Z,-0.60
2022-12-10T22:52:32.589Z,-0.60
2022-12-10T22:54:59.482Z,-0.60
2022-12-10T22:57:26.700Z,-0.60
2022-12-10T22:59:55.147Z,-0.60
2022-12-10T23:02:25.058Z,-0.60
2022-12-10T23:04:52.882Z,-0.60
2022-12-10T23:07:19.851Z,-0.60
2022-12-10T23:09:46.778Z,-0.60
2022-12-10T23:12:32.365Z,-0.50
2022-12-10T23:15:01.029Z,-0.40
2022-12-10T23:17:27.881Z,-0.40
2022-12-10T23:19:55.322Z,-0.30
2022-12-10T23:22:22.311Z,-0.40
2022-12-10T23:24:49.905Z,-0.40
2022-12-10T23:27:16.812Z,-0.40
2022-12-10T23:29:44.080Z,-0.40
2022-12-10T23:32:12.311Z,-0.40
2022-12-10T23:34:39.272Z,-0.30
2022-12-10T23:37:07.158Z,-0.40
2022-12-10T23:39:34.767Z,-0.30
2022-12-10T23:42:01.972Z,-0.30
2022-12-10T23:44:29.172Z,-0.40
2022-12-10T23:46:56.051Z,-0.50
2022-12-10T23:49:24.603Z,-0.50
2022-12-10T23:51:51.519Z,-0.50
2022-12-10T23:54:18.708Z,-0.60
2022-12-10T23:56:45.580Z,-0.50
2022-12-10T23:59:12.900Z,-0.60
